createdAt,value
2018-12-30T00:00:55.577Z,14.60
2018-12-30T00:03:27.422Z,13.93
2018-12-30T00:06:02.763Z,13.87
2018-12-30T00:08:52.377Z,13.37
2018-12-30T00:11:30.750Z,12.73
2018-12-30T00:14:04.442Z,12.83
2018-12-30T00:16:39.017Z,12.33
2018-12-30T00:19:10.452Z,12.07
2018-12-30T00:21:45.773Z,12.70
2018-12-30T00:24:16.771Z,12.37
2018-12-30T00:26:47.396Z,11.87
2018-12-30T00:29:20.485Z,13.57
2018-12-30T00:31:53.480Z,13.80
2018-12-30T00:34:28.576Z,12.90
2018-12-30T00:36:59.285Z,13.77
2018-12-30T00:39:29.755Z,13.30
2018-12-30T00:42:00.407Z,14.00
2018-12-30T00:44:31.665Z,12.10
2018-12-30T00:47:02.184Z,13.57
2018-12-30T00:49:35.171Z,15.20
2018-12-30T00:52:09.410Z,14.27
2018-12-30T00:54:42.957Z,15.13
2018-12-30T00:57:15.923Z,14.97
2018-12-30T00:59:52.240Z,13.57
2018-12-30T01:02:25.598Z,14.60
2018-12-30T01:05:02.562Z,13.63
2018-12-30T01:07:36.855Z,14.60
2018-12-30T01:10:15.342Z,14.33
2018-12-30T01:12:49.168Z,14.27
2018-12-30T01:15:22.780Z,14.23
2018-12-30T01:17:54.143Z,12.90
2018-12-30T01:20:44.236Z,15.27
2018-12-30T01:23:19.359Z,15.67
2018-12-30T01:25:52.756Z,16.77
2018-12-30T01:28:24.921Z,17.40
2018-12-30T01:30:58.995Z,17.20
2018-12-30T01:33:32.801Z,15.77
2018-12-30T01:36:05.169Z,16.53
2018-12-30T01:38:37.618Z,17.33
2018-12-30T01:41:10.605Z,17.83
2018-12-30T01:43:43.920Z,16.43
2018-12-30T01:46:17.167Z,17.50
2018-12-30T01:48:49.188Z,14.23
2018-12-30T01:51:21.246Z,16.70
2018-12-30T01:53:54.165Z,14.50
2018-12-30T01:56:27.644Z,16.57
2018-12-30T01:59:19.775Z,16.03
2018-12-30T02:01:52.357Z,17.10
2018-12-30T02:04:25.845Z,16.67
2018-12-30T02:06:58.652Z,15.00
2018-12-30T02:09:32.760Z,16.67
2018-12-30T02:12:09.135Z,14.73
2018-12-30T02:14:46.532Z,15.80
2018-12-30T02:17:17.150Z,15.47
2018-12-30T02:19:50.503Z,16.13
2018-12-30T02:22:24.925Z,15.17
2018-12-30T02:24:58.549Z,15.10
2018-12-30T02:27:29.138Z,15.03
2018-12-30T02:29:59.599Z,15.87
2018-12-30T02:32:30.212Z,15.80
2018-12-30T02:35:05.723Z,15.67
2018-12-30T02:37:38.919Z,15.80
2018-12-30T02:40:14.159Z,16.40
2018-12-30T02:42:47.580Z,14.97
2018-12-30T02:45:18.142Z,14.83
2018-12-30T02:47:51.298Z,13.90
2018-12-30T02:50:21.963Z,11.87
2018-12-30T02:52:56.181Z,12.03
2018-12-30T02:55:29.954Z,12.20
2018-12-30T02:58:17.172Z,10.87
2018-12-30T03:00:49.398Z,9.83
2018-12-30T03:03:21.906Z,8.63
2018-12-30T03:05:53.103Z,9.70
2018-12-30T03:08:23.767Z,10.23
2018-12-30T03:11:00.392Z,10.10
2018-12-30T03:13:34.324Z,10.30
2018-12-30T03:16:09.139Z,9.87
2018-12-30T03:18:42.044Z,10.17
2018-12-30T03:21:12.656Z,10.63
2018-12-30T03:23:43.151Z,10.70
2018-12-30T03:26:13.865Z,10.23
2018-12-30T03:28:45.186Z,9.70
2018-12-30T03:31:17.111Z,10.53
2018-12-30T03:33:52.347Z,9.63
2018-12-30T03:36:23.475Z,8.00
2018-12-30T03:38:57.367Z,9.03
2018-12-30T03:41:50.012Z,9.40
2018-12-30T03:44:24.696Z,8.20
2018-12-30T03:47:00.185Z,7.17
2018-12-30T03:49:33.322Z,9.23
2018-12-30T03:52:08.622Z,7.33
2018-12-30T03:54:38.795Z,8.03
2018-12-30T03:57:11.527Z,7.47
2018-12-30T03:59:42.454Z,8.33
2018-12-30T04:02:13.557Z,8.50
2018-12-30T04:05:02.405Z,9.00
2018-12-30T04:07:36.348Z,9.73
2018-12-30T04:10:25.126Z,8.97
2018-12-30T04:12:58.502Z,9.27
2018-12-30T04:15:31.659Z,10.30
2018-12-30T04:18:04.390Z,9.03
2018-12-30T04:20:37.704Z,9.00
2018-12-30T04:23:11.441Z,9.53
2018-12-30T04:25:44.304Z,8.60
2018-12-30T04:28:14.766Z,9.80
2018-12-30T04:30:45.552Z,8.70
2018-12-30T04:33:16.766Z,8.23
2018-12-30T04:35:53.729Z,9.87
2018-12-30T04:38:26.607Z,8.97
2018-12-30T04:40:59.244Z,8.60
2018-12-30T04:43:31.737Z,8.80
2018-12-30T04:46:05.983Z,9.30
2018-12-30T04:48:38.349Z,9.23
2018-12-30T04:51:11.768Z,8.80
2018-12-30T04:53:42.526Z,8.83
2018-12-30T04:56:15.102Z,9.60
2018-12-30T04:58:47.233Z,9.23
2018-12-30T05:01:19.342Z,9.17
2018-12-30T05:03:53.168Z,9.00
2018-12-30T05:06:23.640Z,9.00
2018-12-30T05:08:54.978Z,9.30
2018-12-30T05:11:36.780Z,9.20
2018-12-30T05:14:09.464Z,9.63
2018-12-30T05:16:42.425Z,9.93
2018-12-30T05:19:12.864Z,9.37
2018-12-30T05:21:43.603Z,10.67
2018-12-30T05:24:14.778Z,9.50
2018-12-30T05:26:45.314Z,9.33
2018-12-30T05:29:15.916Z,10.20
2018-12-30T05:31:51.348Z,10.47
2018-12-30T05:34:23.865Z,10.27
2018-12-30T05:36:56.739Z,9.90
2018-12-30T05:39:30.659Z,9.73
2018-12-30T05:42:02.371Z,8.97
2018-12-30T05:44:32.872Z,9.77
2018-12-30T05:47:05.875Z,8.60
2018-12-30T05:49:37.056Z,8.37
2018-12-30T05:52:17.480Z,8.77
2018-12-30T05:54:52.526Z,6.53
2018-12-30T05:57:24.229Z,8.27
2018-12-30T05:59:54.751Z,7.20
2018-12-30T06:02:25.241Z,6.60
2018-12-30T06:04:56.059Z,7.47
2018-12-30T06:07:32.860Z,6.80
2018-12-30T06:10:07.420Z,6.30
2018-12-30T06:12:38.006Z,7.07
2018-12-30T06:15:14.073Z,7.10
2018-12-30T06:17:45.011Z,7.03
2018-12-30T06:20:15.760Z,6.73
2018-12-30T06:22:49.738Z,7.00
2018-12-30T06:25:23.236Z,6.50
2018-12-30T06:27:55.458Z,6.67
2018-12-30T06:30:28.125Z,5.97
2018-12-30T06:33:17.274Z,7.63
2018-12-30T06:35:52.428Z,6.70
2018-12-30T06:38:26.520Z,7.23
2018-12-30T06:41:15.927Z,7.20
2018-12-30T06:43:50.804Z,7.43
2018-12-30T06:46:23.344Z,7.30
2018-12-30T06:48:53.871Z,6.40
2018-12-30T06:51:26.738Z,7.37
2018-12-30T06:53:58.412Z,7.10
2018-12-30T06:56:31.892Z,7.37
2018-12-30T06:59:06.350Z,7.20
2018-12-30T07:01:41.621Z,7.17
2018-12-30T07:04:12.278Z,7.60
2018-12-30T07:06:43.371Z,7.23
2018-12-30T07:09:13.856Z,6.63
2018-12-30T07:11:46.791Z,5.90
2018-12-30T07:14:17.347Z,6.93
2018-12-30T07:16:51.292Z,6.97
2018-12-30T07:19:26.130Z,6.87
2018-12-30T07:22:00.962Z,6.50
2018-12-30T07:24:33.164Z,6.70
2018-12-30T07:27:03.849Z,6.63
2018-12-30T07:29:34.787Z,7.67
2018-12-30T07:32:05.717Z,6.60
2018-12-30T07:34:39.813Z,7.03
2018-12-30T07:37:10.291Z,7.10
2018-12-30T07:39:41.588Z,6.70
2018-12-30T07:42:15.138Z,6.50
2018-12-30T07:44:54.599Z,7.07
2018-12-30T07:47:25.376Z,7.10
2018-12-30T07:49:55.912Z,6.63
2018-12-30T07:52:30.385Z,6.87
2018-12-30T07:55:03.600Z,6.43
2018-12-30T07:57:36.600Z,6.60
2018-12-30T08:00:09.508Z,6.53
2018-12-30T08:02:43.659Z,7.47
2018-12-30T08:05:14.507Z,7.57
2018-12-30T08:07:45.181Z,7.80
2018-12-30T08:10:16.147Z,8.40
2018-12-30T08:12:52.902Z,7.67
2018-12-30T08:15:24.132Z,7.20
2018-12-30T08:17:56.546Z,8.10
2018-12-30T08:20:31.525Z,7.57
2018-12-30T08:23:05.423Z,8.27
2018-12-30T08:25:54.587Z,7.53
2018-12-30T08:28:26.708Z,8.43
2018-12-30T08:30:59.472Z,7.60
2018-12-30T08:33:33.053Z,8.53
2018-12-30T08:36:07.186Z,8.00
2018-12-30T08:38:41.230Z,7.87
2018-12-30T08:41:14.404Z,7.80
2018-12-30T08:43:46.805Z,7.83
2018-12-30T08:46:17.621Z,8.57
2018-12-30T08:48:56.502Z,7.57
2018-12-30T08:51:28.006Z,6.93
2018-12-30T08:53:58.716Z,7.00
2018-12-30T08:56:30.156Z,6.80
2018-12-30T08:59:04.804Z,6.93
2018-12-30T09:01:35.800Z,7.70
2018-12-30T09:04:06.677Z,7.20
2018-12-30T09:06:55.185Z,6.00
2018-12-30T09:09:32.328Z,7.40
2018-12-30T09:12:02.740Z,5.90
2018-12-30T09:14:33.406Z,6.37
2018-12-30T09:17:03.815Z,6.60
2018-12-30T09:19:34.657Z,5.50
2018-12-30T09:22:05.175Z,5.43
2018-12-30T09:24:38.771Z,5.97
2018-12-30T09:27:12.210Z,6.87
2018-12-30T09:29:53.049Z,5.13
2018-12-30T09:32:26.432Z,4.33
2018-12-30T09:35:00.185Z,4.20
2018-12-30T09:37:32.383Z,4.40
2018-12-30T09:40:17.900Z,3.80
2018-12-30T09:42:50.964Z,3.97
2018-12-30T09:45:31.120Z,3.90
2018-12-30T09:48:05.646Z,3.90
2018-12-30T09:50:38.759Z,4.17
2018-12-30T09:53:13.123Z,3.70
2018-12-30T09:55:45.873Z,3.90
2018-12-30T09:58:20.579Z,4.30
2018-12-30T10:01:02.412Z,4.10
2018-12-30T10:03:34.681Z,4.03
2018-12-30T10:06:05.234Z,4.30
2018-12-30T10:08:38.797Z,4.00
2018-12-30T10:11:12.347Z,4.30
2018-12-30T10:13:46.450Z,4.47
2018-12-30T10:16:18.478Z,4.27
2018-12-30T10:18:52.417Z,4.50
2018-12-30T10:21:33.084Z,4.10
2018-12-30T10:24:06.109Z,4.40
2018-12-30T10:26:36.833Z,4.20
2018-12-30T10:29:07.252Z,4.57
2018-12-30T10:31:37.748Z,3.83
2018-12-30T10:34:08.621Z,4.07
2018-12-30T10:36:39.761Z,4.10
2018-12-30T10:39:14.291Z,4.47
2018-12-30T10:41:47.453Z,3.57
2018-12-30T10:44:26.147Z,3.20
2018-12-30T10:46:56.644Z,3.90
2018-12-30T10:49:27.160Z,3.67
2018-12-30T10:51:58.042Z,3.13
2018-12-30T10:54:28.780Z,3.60
2018-12-30T10:56:59.290Z,3.60
2018-12-30T10:59:30.240Z,3.43
2018-12-30T11:02:03.489Z,3.67
2018-12-30T11:04:52.734Z,3.67
2018-12-30T11:07:41.914Z,3.50
2018-12-30T11:10:26.706Z,15.00
2018-12-30T11:13:00.152Z,5.10
2018-12-30T11:15:32.051Z,6.00
2018-12-30T11:18:04.258Z,3.97
2018-12-30T11:20:35.947Z,4.23
2018-12-30T11:23:06.644Z,5.63
2018-12-30T11:25:41.259Z,4.30
2018-12-30T11:28:14.975Z,4.30
2018-12-30T11:30:53.833Z,4.00
2018-12-30T11:33:24.825Z,2.97
2018-12-30T11:35:58.541Z,3.33
2018-12-30T11:38:45.973Z,3.97
2018-12-30T11:41:17.674Z,3.40
2018-12-30T11:43:53.105Z,3.50
2018-12-30T11:46:25.375Z,4.00
2018-12-30T11:48:59.743Z,3.60
2018-12-30T11:51:33.459Z,4.07
2018-12-30T11:54:16.459Z,4.13
2018-12-30T11:56:45.464Z,4.43
2018-12-30T11:59:16.630Z,4.07
2018-12-30T12:01:47.293Z,4.00
2018-12-30T12:04:17.962Z,2.90
2018-12-30T12:06:49.434Z,2.53
2018-12-30T12:09:19.939Z,3.10
2018-12-30T12:11:50.417Z,2.90
2018-12-30T12:14:21.375Z,3.57
2018-12-30T12:16:59.415Z,2.90
2018-12-30T12:19:32.802Z,3.27
2018-12-30T12:22:04.927Z,3.90
2018-12-30T12:24:59.277Z,3.20
2018-12-30T12:27:31.595Z,3.90
2018-12-30T12:30:07.562Z,3.17
2018-12-30T12:32:43.248Z,3.43
2018-12-30T12:35:17.999Z,3.80
2018-12-30T12:37:59.617Z,5.30
2018-12-30T12:40:34.778Z,5.20
2018-12-30T12:43:20.112Z,6.30
2018-12-30T12:45:53.626Z,6.50
2018-12-30T12:48:26.603Z,5.30
2018-12-30T12:50:59.061Z,5.47
2018-12-30T12:53:33.016Z,4.70
2018-12-30T12:56:13.866Z,4.00
2018-12-30T12:59:03.459Z,4.70
2018-12-30T13:01:48.592Z,4.83
2018-12-30T13:04:19.455Z,4.70
2018-12-30T13:06:52.561Z,5.17
2018-12-30T13:09:36.176Z,4.07
2018-12-30T13:12:07.174Z,4.33
2018-12-30T13:14:37.900Z,4.83
2018-12-30T13:17:09.042Z,4.60
2018-12-30T13:19:39.575Z,4.90
2018-12-30T13:22:10.001Z,5.47
2018-12-30T13:24:40.480Z,5.63
2018-12-30T13:27:11.085Z,4.60
2018-12-30T13:29:42.020Z,5.00
2018-12-30T13:32:12.497Z,6.93
2018-12-30T13:34:43.124Z,5.63
2018-12-30T13:37:13.748Z,5.60
2018-12-30T13:39:46.583Z,4.63
2018-12-30T13:42:18.376Z,6.63
2018-12-30T13:44:50.324Z,4.57
2018-12-30T13:47:22.807Z,4.60
2018-12-30T13:49:55.971Z,5.03
2018-12-30T13:52:32.919Z,11.27
2018-12-30T13:55:03.813Z,6.70
2018-12-30T13:57:34.510Z,5.27
2018-12-30T14:00:07.822Z,4.73
2018-12-30T14:02:40.437Z,5.00
2018-12-30T14:05:17.167Z,4.50
2018-12-30T14:08:07.536Z,5.33
2018-12-30T14:10:38.309Z,4.83
2018-12-30T14:13:24.120Z,10.13
2018-12-30T14:15:55.082Z,6.00
2018-12-30T14:18:26.065Z,5.80
2018-12-30T14:20:56.661Z,6.30
2018-12-30T14:23:27.069Z,6.50
2018-12-30T14:25:57.690Z,5.00
2018-12-30T14:28:28.460Z,5.20
2018-12-30T14:30:59.215Z,7.63
2018-12-30T14:33:33.107Z,6.40
2018-12-30T14:36:08.027Z,6.23
2018-12-30T14:38:40.095Z,7.03
2018-12-30T14:41:14.131Z,5.30
2018-12-30T14:43:47.077Z,9.10
2018-12-30T14:46:17.697Z,7.70
2018-12-30T14:48:48.362Z,5.60
2018-12-30T14:51:19.784Z,6.40
2018-12-30T14:53:50.762Z,5.23
2018-12-30T14:56:25.711Z,7.80
2018-12-30T14:58:58.722Z,7.50
2018-12-30T15:01:30.444Z,6.40
2018-12-30T15:04:01.267Z,6.20
2018-12-30T15:06:33.059Z,5.30
2018-12-30T15:09:09.125Z,5.67
2018-12-30T15:11:40.016Z,5.43
2018-12-30T15:14:12.770Z,4.90
2018-12-30T15:16:46.244Z,5.27
2018-12-30T15:19:31.899Z,5.43
2018-12-30T15:22:05.322Z,5.10
2018-12-30T15:24:38.386Z,5.30
2018-12-30T15:27:09.489Z,5.20
2018-12-30T15:29:40.200Z,4.90
2018-12-30T15:32:13.362Z,4.80
2018-12-30T15:34:46.525Z,4.60
2018-12-30T15:37:17.292Z,4.00
2018-12-30T15:39:47.809Z,4.80
2018-12-30T15:42:19.022Z,5.10
2018-12-30T15:44:56.044Z,4.27
2018-12-30T15:47:26.787Z,4.67
2018-12-30T15:50:03.001Z,5.00
2018-12-30T15:52:35.832Z,4.87
2018-12-30T15:55:06.647Z,4.60
2018-12-30T15:57:53.402Z,4.00
2018-12-30T16:00:27.551Z,4.03
2018-12-30T16:03:09.464Z,3.83
2018-12-30T16:05:39.922Z,3.87
2018-12-30T16:08:10.342Z,3.97
2018-12-30T16:10:41.229Z,4.17
2018-12-30T16:13:11.647Z,3.27
2018-12-30T16:15:42.539Z,3.97
2018-12-30T16:18:13.897Z,4.17
2018-12-30T16:20:44.532Z,4.07
2018-12-30T16:23:15.046Z,3.30
2018-12-30T16:25:45.929Z,3.87
2018-12-30T16:28:16.702Z,4.20
2018-12-30T16:30:47.573Z,4.67
2018-12-30T16:33:18.465Z,3.70
2018-12-30T16:35:53.598Z,3.60
2018-12-30T16:38:25.701Z,4.03
2018-12-30T16:40:58.663Z,3.40
2018-12-30T16:43:35.485Z,3.83
2018-12-30T16:46:10.001Z,3.87
2018-12-30T16:48:42.217Z,3.50
2018-12-30T16:51:13.753Z,3.97
2018-12-30T16:53:46.913Z,4.60
2018-12-30T16:56:18.792Z,4.20
2018-12-30T16:58:52.611Z,4.00
2018-12-30T17:01:26.118Z,4.10
2018-12-30T17:03:59.689Z,3.90
2018-12-30T17:06:34.150Z,4.13
2018-12-30T17:09:08.489Z,3.53
2018-12-30T17:11:42.072Z,3.90
2018-12-30T17:14:14.289Z,4.07
2018-12-30T17:16:49.009Z,4.67
2018-12-30T17:19:21.998Z,3.90
2018-12-30T17:21:54.576Z,4.87
2018-12-30T17:24:28.361Z,4.30
2018-12-30T17:27:02.605Z,3.73
2018-12-30T17:29:36.146Z,4.10
2018-12-30T17:32:09.869Z,3.47
2018-12-30T17:34:49.262Z,3.23
2018-12-30T17:37:19.596Z,3.70
2018-12-30T17:39:52.361Z,3.40
2018-12-30T17:42:27.284Z,2.93
2018-12-30T17:45:02.439Z,2.70
2018-12-30T17:47:37.056Z,2.97
2018-12-30T17:50:10.316Z,2.53
2018-12-30T17:52:41.144Z,2.77
2018-12-30T17:55:13.118Z,4.00
2018-12-30T17:57:46.275Z,3.33
2018-12-30T18:00:19.834Z,3.37
2018-12-30T18:02:55.894Z,2.80
2018-12-30T18:05:30.318Z,3.90
2018-12-30T18:08:05.126Z,4.33
2018-12-30T18:10:38.120Z,4.83
2018-12-30T18:13:27.268Z,4.70
2018-12-30T18:15:58.742Z,4.50
2018-12-30T18:18:29.399Z,4.37
2018-12-30T18:21:00.212Z,4.03
2018-12-30T18:23:46.098Z,4.63
2018-12-30T18:26:16.854Z,5.43
2018-12-30T18:28:47.548Z,4.53
2018-12-30T18:31:38.427Z,5.73
2018-12-30T18:34:27.142Z,6.80
2018-12-30T18:37:15.645Z,7.80
2018-12-30T18:39:51.518Z,9.43
2018-12-30T18:42:22.064Z,7.40
2018-12-30T18:44:55.649Z,5.40
2018-12-30T18:47:28.149Z,5.20
2018-12-30T18:50:00.506Z,5.70
2018-12-30T18:52:33.392Z,5.47
2018-12-30T18:55:04.064Z,5.70
2018-12-30T18:57:39.097Z,6.60
2018-12-30T19:00:11.999Z,5.20
2018-12-30T19:02:42.508Z,5.00
2018-12-30T19:05:16.011Z,4.80
2018-12-30T19:07:53.364Z,4.90
2018-12-30T19:10:24.292Z,4.83
2018-12-30T19:12:57.859Z,5.20
2018-12-30T19:15:49.855Z,4.20
2018-12-30T19:18:24.947Z,3.70
2018-12-30T19:20:57.891Z,3.87
2018-12-30T19:23:46.943Z,3.60
2018-12-30T19:26:18.612Z,3.67
2018-12-30T19:28:49.046Z,3.70
2018-12-30T19:31:19.811Z,3.60
2018-12-30T19:33:50.965Z,3.97
2018-12-30T19:36:24.491Z,3.73
2018-12-30T19:39:01.253Z,3.03
2018-12-30T19:41:43.540Z,3.77
2018-12-30T19:44:23.099Z,4.83
2018-12-30T19:47:00.496Z,3.83
2018-12-30T19:49:33.155Z,4.40
2018-12-30T19:52:11.169Z,3.40
2018-12-30T19:54:44.187Z,3.20
2018-12-30T19:57:16.840Z,3.20
2018-12-30T20:00:00.664Z,3.30
2018-12-30T20:02:32.178Z,3.07
2018-12-30T20:05:06.618Z,3.23
2018-12-30T20:07:41.382Z,3.57
2018-12-30T20:10:14.799Z,3.23
2018-12-30T20:12:46.199Z,4.07
2018-12-30T20:15:18.920Z,3.73
2018-12-30T20:18:06.569Z,3.77
2018-12-30T20:21:03.572Z,3.50
2018-12-30T20:23:57.158Z,3.17
2018-12-30T20:26:52.311Z,3.10
2018-12-30T20:29:39.141Z,3.60
2018-12-30T20:32:24.608Z,3.47
2018-12-30T20:35:31.157Z,4.30
2018-12-30T20:38:28.532Z,4.10
2018-12-30T20:41:05.157Z,4.33
2018-12-30T20:43:53.226Z,4.20
2018-12-30T20:46:46.719Z,5.00
2018-12-30T20:49:47.211Z,4.10
2018-12-30T20:52:26.499Z,4.70
2018-12-30T20:55:13.499Z,4.20
2018-12-30T21:01:02.893Z,4.20
2018-12-30T21:03:56.403Z,4.10
2018-12-30T21:06:59.455Z,4.17
2018-12-30T21:09:55.890Z,4.10
2018-12-30T21:13:14.583Z,5.40
2018-12-30T21:16:13.227Z,5.03
2018-12-30T21:19:00.761Z,4.03
2018-12-30T21:21:35.279Z,4.60
2018-12-30T21:24:07.538Z,3.97
2018-12-30T21:26:45.393Z,4.80
2018-12-30T21:29:18.539Z,4.60
2018-12-30T21:31:55.426Z,4.57
2018-12-30T21:34:32.117Z,5.50
2018-12-30T21:37:03.392Z,4.70
2018-12-30T21:39:33.888Z,4.90
2018-12-30T21:42:05.378Z,3.93
2018-12-30T21:44:37.243Z,3.67
2018-12-30T21:47:09.806Z,3.30
2018-12-30T21:49:43.418Z,3.77
2018-12-30T21:52:14.128Z,3.80
2018-12-30T21:54:45.261Z,3.30
2018-12-30T21:57:19.161Z,3.70
2018-12-30T21:59:52.691Z,3.10
2018-12-30T22:02:27.078Z,4.27
2018-12-30T22:04:58.874Z,2.70
2018-12-30T22:07:29.327Z,3.60
2018-12-30T22:10:03.286Z,2.47
2018-12-30T22:12:34.286Z,2.43
2018-12-30T22:15:05.734Z,2.00
2018-12-30T22:17:40.224Z,2.13
2018-12-30T22:20:12.471Z,1.77
2018-12-30T22:22:52.347Z,2.00
2018-12-30T22:25:22.802Z,2.70
2018-12-30T22:27:54.605Z,4.77
2018-12-30T22:30:29.800Z,1.93
2018-12-30T22:33:02.281Z,1.40
2018-12-30T22:35:34.390Z,1.30
2018-12-30T22:38:05.226Z,1.40
2018-12-30T22:40:38.143Z,1.50
2018-12-30T22:43:11.403Z,1.57
2018-12-30T22:45:44.811Z,1.80
2018-12-30T22:48:18.574Z,1.70
2018-12-30T22:50:54.520Z,1.90
2018-12-30T22:53:26.543Z,1.90
2018-12-30T22:56:01.102Z,1.90
2018-12-30T22:58:32.874Z,1.63
2018-12-30T23:01:11.548Z,1.80
2018-12-30T23:03:43.960Z,1.70
2018-12-30T23:06:16.647Z,1.70
2018-12-30T23:08:49.128Z,1.90
2018-12-30T23:11:20.762Z,1.60
2018-12-30T23:13:55.022Z,2.50
2018-12-30T23:16:28.397Z,2.70
2018-12-30T23:19:03.196Z,2.30
2018-12-30T23:21:52.922Z,2.20
2018-12-30T23:24:31.680Z,1.87
2018-12-30T23:27:06.046Z,2.37
2018-12-30T23:29:37.588Z,2.27
2018-12-30T23:32:08.376Z,2.43
2018-12-30T23:34:40.449Z,2.20
2018-12-30T23:37:13.129Z,2.27
2018-12-30T23:39:43.905Z,2.87
2018-12-30T23:42:14.556Z,2.30
2018-12-30T23:44:45.557Z,3.00
2018-12-30T23:47:16.572Z,2.50
2018-12-30T23:50:07.879Z,3.63
2018-12-30T23:52:57.433Z,2.90
2018-12-30T23:55:40.178Z,3.10
2018-12-30T23:58:13.310Z,2.83
